sensor_id;sensor_type;location;lat;lon;timestamp;P1;durP1;ratioP1;P2;durP2;ratioP2
72404;SDS011;60395;52.020;113.548;2022-11-20T00:00:00;3.47;;;1.50;;
72404;SDS011;60395;52.020;113.548;2022-11-20T00:03:07;2.50;;;0.95;;
72404;SDS011;60395;52.020;113.548;2022-11-20T00:06:12;2.33;;;1.30;;
72404;SDS011;60395;52.020;113.548;2022-11-20T00:09:17;5.28;;;1.38;;
72404;SDS011;60395;52.020;113.548;2022-11-20T00:12:20;5.25;;;2.22;;
72404;SDS011;60395;52.020;113.548;2022-11-20T00:15:23;8.88;;;2.03;;
72404;SDS011;60395;52.020;113.548;2022-11-20T00:18:27;5.72;;;1.67;;
72404;SDS011;60395;52.020;113.548;2022-11-20T00:21:30;4.95;;;1.20;;
72404;SDS011;60395;52.020;113.548;2022-11-20T00:24:34;8.07;;;2.97;;
72404;SDS011;60395;52.020;113.548;2022-11-20T00:27:43;2.45;;;1.52;;
72404;SDS011;60395;52.020;113.548;2022-11-20T00:30:46;3.50;;;1.73;;
72404;SDS011;60395;52.020;113.548;2022-11-20T00:33:49;3.25;;;2.00;;
72404;SDS011;60395;52.020;113.548;2022-11-20T00:36:53;4.15;;;1.10;;
72404;SDS011;60395;52.020;113.548;2022-11-20T00:39:56;4.68;;;2.58;;
72404;SDS011;60395;52.020;113.548;2022-11-20T00:42:59;5.22;;;2.50;;
72404;SDS011;60395;52.020;113.548;2022-11-20T00:46:07;5.53;;;1.70;;
72404;SDS011;60395;52.020;113.548;2022-11-20T00:49:15;4.40;;;1.73;;
72404;SDS011;60395;52.020;113.548;2022-11-20T00:52:18;10.03;;;1.13;;
72404;SDS011;60395;52.020;113.548;2022-11-20T00:55:21;2.00;;;1.13;;
72404;SDS011;60395;52.020;113.548;2022-11-20T00:58:24;4.85;;;1.60;;
72404;SDS011;60395;52.020;113.548;2022-11-20T01:01:31;22.67;;;2.42;;
72404;SDS011;60395;52.020;113.548;2022-11-20T01:04:34;4.82;;;1.90;;
72404;SDS011;60395;52.020;113.548;2022-11-20T01:07:37;3.28;;;1.70;;
72404;SDS011;60395;52.020;113.548;2022-11-20T01:10:40;7.28;;;2.28;;
72404;SDS011;60395;52.020;113.548;2022-11-20T01:13:44;4.03;;;1.90;;
72404;SDS011;60395;52.020;113.548;2022-11-20T01:16:49;6.85;;;1.52;;
72404;SDS011;60395;52.020;113.548;2022-11-20T01:19:53;5.30;;;3.15;;
72404;SDS011;60395;52.020;113.548;2022-11-20T01:22:56;3.47;;;2.17;;
72404;SDS011;60395;52.020;113.548;2022-11-20T01:26:00;6.40;;;2.15;;
72404;SDS011;60395;52.020;113.548;2022-11-20T01:29:05;4.75;;;2.17;;
72404;SDS011;60395;52.020;113.548;2022-11-20T01:32:09;15.60;;;4.63;;
72404;SDS011;60395;52.020;113.548;2022-11-20T01:35:12;7.22;;;2.97;;
72404;SDS011;60395;52.020;113.548;2022-11-20T01:38:16;5.97;;;3.33;;
72404;SDS011;60395;52.020;113.548;2022-11-20T01:41:19;1.25;;;0.55;;
72404;SDS011;60395;52.020;113.548;2022-11-20T01:47:56;14.95;;;6.22;;
72404;SDS011;60395;52.020;113.548;2022-11-20T01:50:59;7.65;;;2.80;;
72404;SDS011;60395;52.020;113.548;2022-11-20T01:54:04;8.13;;;3.20;;
72404;SDS011;60395;52.020;113.548;2022-11-20T01:57:12;11.43;;;3.28;;
72404;SDS011;60395;52.020;113.548;2022-11-20T02:03:20;4.77;;;1.60;;
72404;SDS011;60395;52.020;113.548;2022-11-20T02:06:27;7.47;;;2.07;;
72404;SDS011;60395;52.020;113.548;2022-11-20T02:09:34;4.85;;;2.58;;
72404;SDS011;60395;52.020;113.548;2022-11-20T02:12:37;5.87;;;2.07;;
72404;SDS011;60395;52.020;113.548;2022-11-20T02:15:59;3.65;;;2.00;;
72404;SDS011;60395;52.020;113.548;2022-11-20T02:19:03;7.20;;;3.63;;
72404;SDS011;60395;52.020;113.548;2022-11-20T02:22:14;9.75;;;3.85;;
72404;SDS011;60395;52.020;113.548;2022-11-20T02:28:32;3.72;;;1.80;;
72404;SDS011;60395;52.020;113.548;2022-11-20T02:31:37;10.43;;;4.57;;
72404;SDS011;60395;52.020;113.548;2022-11-20T02:34:42;5.35;;;2.78;;
72404;SDS011;60395;52.020;113.548;2022-11-20T02:37:49;6.75;;;2.90;;
72404;SDS011;60395;52.020;113.548;2022-11-20T02:40:55;4.97;;;3.03;;
72404;SDS011;60395;52.020;113.548;2022-11-20T02:43:58;9.98;;;4.85;;
72404;SDS011;60395;52.020;113.548;2022-11-20T02:47:01;27.75;;;10.93;;
72404;SDS011;60395;52.020;113.548;2022-11-20T02:50:04;48.97;;;17.00;;
72404;SDS011;60395;52.020;113.548;2022-11-20T02:53:08;104.20;;;28.48;;
72404;SDS011;60395;52.020;113.548;2022-11-20T02:56:11;43.47;;;15.82;;
72404;SDS011;60395;52.020;113.548;2022-11-20T02:59:15;43.43;;;13.40;;
72404;SDS011;60395;52.020;113.548;2022-11-20T03:02:18;35.45;;;11.52;;
72404;SDS011;60395;52.020;113.548;2022-11-20T03:05:21;6.68;;;3.17;;
72404;SDS011;60395;52.020;113.548;2022-11-20T03:08:24;8.23;;;4.00;;
72404;SDS011;60395;52.020;113.548;2022-11-20T03:11:28;25.85;;;13.38;;
72404;SDS011;60395;52.020;113.548;2022-11-20T03:14:31;5.27;;;2.53;;
72404;SDS011;60395;52.020;113.548;2022-11-20T03:17:34;5.20;;;2.30;;
72404;SDS011;60395;52.020;113.548;2022-11-20T03:20:37;9.10;;;3.53;;
72404;SDS011;60395;52.020;113.548;2022-11-20T03:23:40;8.20;;;3.35;;
72404;SDS011;60395;52.020;113.548;2022-11-20T03:26:43;6.95;;;3.20;;
72404;SDS011;60395;52.020;113.548;2022-11-20T03:29:46;9.25;;;3.83;;
72404;SDS011;60395;52.020;113.548;2022-11-20T03:32:52;10.80;;;4.57;;
72404;SDS011;60395;52.020;113.548;2022-11-20T03:36:00;9.23;;;3.47;;
72404;SDS011;60395;52.020;113.548;2022-11-20T03:39:04;10.10;;;2.38;;
72404;SDS011;60395;52.020;113.548;2022-11-20T03:42:08;14.77;;;3.90;;
72404;SDS011;60395;52.020;113.548;2022-11-20T03:45:31;8.57;;;2.47;;
72404;SDS011;60395;52.020;113.548;2022-11-20T03:48:34;16.65;;;3.05;;
72404;SDS011;60395;52.020;113.548;2022-11-20T03:51:37;5.95;;;2.42;;
72404;SDS011;60395;52.020;113.548;2022-11-20T03:54:40;9.95;;;3.47;;
72404;SDS011;60395;52.020;113.548;2022-11-20T03:57:43;13.50;;;4.65;;
72404;SDS011;60395;52.020;113.548;2022-11-20T04:00:46;10.23;;;4.15;;
72404;SDS011;60395;52.020;113.548;2022-11-20T04:03:51;12.98;;;5.47;;
72404;SDS011;60395;52.020;113.548;2022-11-20T04:06:55;14.55;;;5.45;;
72404;SDS011;60395;52.020;113.548;2022-11-20T04:09:58;18.15;;;6.15;;
72404;SDS011;60395;52.020;113.548;2022-11-20T04:13:01;15.43;;;5.18;;
72404;SDS011;60395;52.020;113.548;2022-11-20T04:16:06;25.30;;;8.73;;
72404;SDS011;60395;52.020;113.548;2022-11-20T04:19:11;17.65;;;6.20;;
72404;SDS011;60395;52.020;113.548;2022-11-20T04:22:18;29.48;;;7.53;;
72404;SDS011;60395;52.020;113.548;2022-11-20T04:25:24;19.63;;;7.15;;
72404;SDS011;60395;52.020;113.548;2022-11-20T04:28:28;47.53;;;15.10;;
72404;SDS011;60395;52.020;113.548;2022-11-20T04:31:32;17.52;;;7.10;;
72404;SDS011;60395;52.020;113.548;2022-11-20T04:34:37;25.92;;;8.65;;
72404;SDS011;60395;52.020;113.548;2022-11-20T04:37:41;38.25;;;12.45;;
72404;SDS011;60395;52.020;113.548;2022-11-20T04:40:44;36.92;;;12.82;;
72404;SDS011;60395;52.020;113.548;2022-11-20T04:43:48;26.88;;;9.77;;
72404;SDS011;60395;52.020;113.548;2022-11-20T04:46:52;19.85;;;8.55;;
72404;SDS011;60395;52.020;113.548;2022-11-20T04:49:56;14.47;;;7.03;;
72404;SDS011;60395;52.020;113.548;2022-11-20T04:52:59;32.27;;;8.60;;
72404;SDS011;60395;52.020;113.548;2022-11-20T04:56:03;15.80;;;5.10;;
72404;SDS011;60395;52.020;113.548;2022-11-20T04:59:10;13.52;;;4.43;;
72404;SDS011;60395;52.020;113.548;2022-11-20T05:02:13;16.13;;;6.53;;
72404;SDS011;60395;52.020;113.548;2022-11-20T05:05:18;12.77;;;4.80;;
72404;SDS011;60395;52.020;113.548;2022-11-20T05:08:22;8.68;;;3.25;;
72404;SDS011;60395;52.020;113.548;2022-11-20T05:11:25;13.50;;;4.75;;
72404;SDS011;60395;52.020;113.548;2022-11-20T05:14:31;9.18;;;4.40;;
72404;SDS011;60395;52.020;113.548;2022-11-20T05:17:35;17.23;;;6.28;;
72404;SDS011;60395;52.020;113.548;2022-11-20T05:20:39;8.55;;;3.22;;
72404;SDS011;60395;52.020;113.548;2022-11-20T05:23:42;13.48;;;4.43;;
72404;SDS011;60395;52.020;113.548;2022-11-20T05:26:46;12.88;;;6.07;;
72404;SDS011;60395;52.020;113.548;2022-11-20T05:29:50;8.20;;;3.83;;
72404;SDS011;60395;52.020;113.548;2022-11-20T05:32:53;5.15;;;2.28;;
72404;SDS011;60395;52.020;113.548;2022-11-20T05:35:59;7.80;;;3.45;;
72404;SDS011;60395;52.020;113.548;2022-11-20T05:39:02;10.57;;;4.50;;
72404;SDS011;60395;52.020;113.548;2022-11-20T05:42:06;12.20;;;4.25;;
72404;SDS011;60395;52.020;113.548;2022-11-20T05:45:27;9.23;;;4.22;;
72404;SDS011;60395;52.020;113.548;2022-11-20T05:48:31;11.40;;;4.73;;
72404;SDS011;60395;52.020;113.548;2022-11-20T05:51:36;7.55;;;3.45;;
72404;SDS011;60395;52.020;113.548;2022-11-20T05:54:39;16.35;;;6.25;;
72404;SDS011;60395;52.020;113.548;2022-11-20T05:57:42;15.00;;;5.88;;
72404;SDS011;60395;52.020;113.548;2022-11-20T06:00:46;8.82;;;4.32;;
72404;SDS011;60395;52.020;113.548;2022-11-20T06:03:49;12.02;;;5.47;;
72404;SDS011;60395;52.020;113.548;2022-11-20T06:06:53;8.82;;;3.60;;
72404;SDS011;60395;52.020;113.548;2022-11-20T06:09:56;5.78;;;2.72;;
72404;SDS011;60395;52.020;113.548;2022-11-20T06:12:59;6.82;;;2.83;;
72404;SDS011;60395;52.020;113.548;2022-11-20T06:16:03;10.68;;;4.25;;
72404;SDS011;60395;52.020;113.548;2022-11-20T06:19:07;8.13;;;2.95;;
72404;SDS011;60395;52.020;113.548;2022-11-20T06:22:10;8.95;;;3.10;;
72404;SDS011;60395;52.020;113.548;2022-11-20T06:25:14;10.80;;;3.85;;
72404;SDS011;60395;52.020;113.548;2022-11-20T06:28:17;11.68;;;3.92;;
72404;SDS011;60395;52.020;113.548;2022-11-20T06:31:21;11.85;;;3.67;;
72404;SDS011;60395;52.020;113.548;2022-11-20T06:34:25;9.15;;;3.15;;
72404;SDS011;60395;52.020;113.548;2022-11-20T06:37:29;11.00;;;3.80;;
72404;SDS011;60395;52.020;113.548;2022-11-20T06:40:32;14.43;;;5.00;;
72404;SDS011;60395;52.020;113.548;2022-11-20T06:43:36;10.90;;;3.72;;
72404;SDS011;60395;52.020;113.548;2022-11-20T06:46:42;13.57;;;3.72;;
72404;SDS011;60395;52.020;113.548;2022-11-20T06:49:45;8.95;;;3.15;;
72404;SDS011;60395;52.020;113.548;2022-11-20T06:52:48;8.50;;;3.50;;
72404;SDS011;60395;52.020;113.548;2022-11-20T06:55:52;22.48;;;5.82;;
72404;SDS011;60395;52.020;113.548;2022-11-20T06:59:03;7.95;;;3.47;;
72404;SDS011;60395;52.020;113.548;2022-11-20T07:02:09;10.35;;;4.22;;
72404;SDS011;60395;52.020;113.548;2022-11-20T07:05:16;11.05;;;4.32;;
72404;SDS011;60395;52.020;113.548;2022-11-20T07:08:20;8.63;;;3.47;;
72404;SDS011;60395;52.020;113.548;2022-11-20T07:11:23;8.27;;;3.65;;
72404;SDS011;60395;52.020;113.548;2022-11-20T07:14:26;10.82;;;3.97;;
72404;SDS011;60395;52.020;113.548;2022-11-20T07:17:30;13.52;;;4.03;;
72404;SDS011;60395;52.020;113.548;2022-11-20T07:20:33;17.42;;;6.00;;
72404;SDS011;60395;52.020;113.548;2022-11-20T07:23:36;10.88;;;4.32;;
72404;SDS011;60395;52.020;113.548;2022-11-20T07:26:45;9.82;;;3.25;;
72404;SDS011;60395;52.020;113.548;2022-11-20T07:29:50;8.18;;;2.65;;
72404;SDS011;60395;52.020;113.548;2022-11-20T07:32:54;14.30;;;3.85;;
72404;SDS011;60395;52.020;113.548;2022-11-20T07:35:59;7.95;;;3.72;;
72404;SDS011;60395;52.020;113.548;2022-11-20T07:39:02;16.45;;;5.03;;
72404;SDS011;60395;52.020;113.548;2022-11-20T07:42:06;15.48;;;5.05;;
72404;SDS011;60395;52.020;113.548;2022-11-20T07:45:11;12.68;;;4.25;;
72404;SDS011;60395;52.020;113.548;2022-11-20T07:48:14;19.13;;;6.05;;
72404;SDS011;60395;52.020;113.548;2022-11-20T07:51:18;32.10;;;10.07;;
72404;SDS011;60395;52.020;113.548;2022-11-20T07:54:22;32.10;;;10.45;;
72404;SDS011;60395;52.020;113.548;2022-11-20T07:57:25;26.35;;;6.90;;
72404;SDS011;60395;52.020;113.548;2022-11-20T08:00:29;27.80;;;7.70;;
72404;SDS011;60395;52.020;113.548;2022-11-20T08:03:33;20.10;;;7.05;;
72404;SDS011;60395;52.020;113.548;2022-11-20T08:06:36;23.63;;;8.33;;
72404;SDS011;60395;52.020;113.548;2022-11-20T08:09:39;22.00;;;8.77;;
72404;SDS011;60395;52.020;113.548;2022-11-20T08:12:48;18.63;;;6.18;;
72404;SDS011;60395;52.020;113.548;2022-11-20T08:16:11;16.45;;;6.10;;
72404;SDS011;60395;52.020;113.548;2022-11-20T08:19:15;17.05;;;6.53;;
72404;SDS011;60395;52.020;113.548;2022-11-20T08:22:21;29.10;;;10.10;;
72404;SDS011;60395;52.020;113.548;2022-11-20T08:25:24;70.07;;;20.20;;
72404;SDS011;60395;52.020;113.548;2022-11-20T08:28:27;238.35;;;53.40;;
72404;SDS011;60395;52.020;113.548;2022-11-20T08:31:30;78.47;;;22.52;;
72404;SDS011;60395;52.020;113.548;2022-11-20T08:34:34;28.10;;;9.98;;
72404;SDS011;60395;52.020;113.548;2022-11-20T08:37:37;31.50;;;10.60;;
72404;SDS011;60395;52.020;113.548;2022-11-20T08:40:43;22.45;;;7.40;;
72404;SDS011;60395;52.020;113.548;2022-11-20T08:44:06;41.63;;;11.68;;
72404;SDS011;60395;52.020;113.548;2022-11-20T08:47:12;26.30;;;8.77;;
72404;SDS011;60395;52.020;113.548;2022-11-20T08:50:16;37.47;;;9.83;;
72404;SDS011;60395;52.020;113.548;2022-11-20T08:53:20;21.52;;;7.55;;
72404;SDS011;60395;52.020;113.548;2022-11-20T08:56:23;15.88;;;6.18;;
72404;SDS011;60395;52.020;113.548;2022-11-20T08:59:26;16.75;;;5.25;;
72404;SDS011;60395;52.020;113.548;2022-11-20T09:02:50;13.25;;;4.45;;
72404;SDS011;60395;52.020;113.548;2022-11-20T09:09:01;15.20;;;5.22;;
72404;SDS011;60395;52.020;113.548;2022-11-20T09:12:07;22.60;;;5.50;;
72404;SDS011;60395;52.020;113.548;2022-11-20T09:15:11;16.25;;;4.75;;
72404;SDS011;60395;52.020;113.548;2022-11-20T09:18:15;23.02;;;5.63;;
72404;SDS011;60395;52.020;113.548;2022-11-20T09:21:18;22.33;;;7.57;;
72404;SDS011;60395;52.020;113.548;2022-11-20T09:24:21;10.27;;;3.87;;
72404;SDS011;60395;52.020;113.548;2022-11-20T09:27:25;13.00;;;3.35;;
72404;SDS011;60395;52.020;113.548;2022-11-20T09:30:28;9.07;;;2.58;;
72404;SDS011;60395;52.020;113.548;2022-11-20T09:33:31;6.28;;;2.60;;
72404;SDS011;60395;52.020;113.548;2022-11-20T09:36:34;4.07;;;2.20;;
72404;SDS011;60395;52.020;113.548;2022-11-20T09:39:38;4.50;;;1.77;;
72404;SDS011;60395;52.020;113.548;2022-11-20T09:42:47;9.98;;;4.60;;
72404;SDS011;60395;52.020;113.548;2022-11-20T09:49:52;45.45;;;13.57;;
72404;SDS011;60395;52.020;113.548;2022-11-20T09:56:17;22.77;;;7.47;;
72404;SDS011;60395;52.020;113.548;2022-11-20T10:05:55;49.90;;;13.03;;
72404;SDS011;60395;52.020;113.548;2022-11-20T10:09:49;40.80;;;11.50;;
72404;SDS011;60395;52.020;113.548;2022-11-20T10:22:53;11.45;;;4.68;;
72404;SDS011;60395;52.020;113.548;2022-11-20T10:29:43;14.80;;;5.03;;
72404;SDS011;60395;52.020;113.548;2022-11-20T10:32:52;13.35;;;5.50;;
72404;SDS011;60395;52.020;113.548;2022-11-20T10:39:31;23.48;;;8.27;;
72404;SDS011;60395;52.020;113.548;2022-11-20T10:46:48;20.02;;;6.95;;
72404;SDS011;60395;52.020;113.548;2022-11-20T10:50:19;29.35;;;7.22;;
72404;SDS011;60395;52.020;113.548;2022-11-20T11:01:02;30.30;;;11.20;;
72404;SDS011;60395;52.020;113.548;2022-11-20T11:07:35;39.78;;;12.75;;
72404;SDS011;60395;52.020;113.548;2022-11-20T11:13:53;38.90;;;16.02;;
72404;SDS011;60395;52.020;113.548;2022-11-20T11:17:17;61.40;;;21.65;;
72404;SDS011;60395;52.020;113.548;2022-11-20T11:20:29;64.05;;;25.90;;
72404;SDS011;60395;52.020;113.548;2022-11-20T11:23:41;66.00;;;25.45;;
72404;SDS011;60395;52.020;113.548;2022-11-20T11:30:15;243.95;;;54.97;;
72404;SDS011;60395;52.020;113.548;2022-11-20T11:33:21;241.13;;;55.15;;
72404;SDS011;60395;52.020;113.548;2022-11-20T11:36:25;242.85;;;56.05;;
72404;SDS011;60395;52.020;113.548;2022-11-20T11:39:29;134.55;;;37.63;;
72404;SDS011;60395;52.020;113.548;2022-11-20T11:42:33;96.40;;;25.90;;
72404;SDS011;60395;52.020;113.548;2022-11-20T11:45:36;166.88;;;33.33;;
72404;SDS011;60395;52.020;113.548;2022-11-20T11:48:40;113.57;;;30.10;;
72404;SDS011;60395;52.020;113.548;2022-11-20T11:51:58;66.82;;;20.55;;
72404;SDS011;60395;52.020;113.548;2022-11-20T11:55:03;100.20;;;28.60;;
72404;SDS011;60395;52.020;113.548;2022-11-20T12:01:54;68.47;;;20.58;;
72404;SDS011;60395;52.020;113.548;2022-11-20T12:05:03;86.57;;;25.38;;
72404;SDS011;60395;52.020;113.548;2022-11-20T12:08:16;47.40;;;16.43;;
72404;SDS011;60395;52.020;113.548;2022-11-20T12:15:11;62.47;;;18.13;;
72404;SDS011;60395;52.020;113.548;2022-11-20T12:18:19;79.70;;;23.95;;
72404;SDS011;60395;52.020;113.548;2022-11-20T12:28:18;92.32;;;24.40;;
72404;SDS011;60395;52.020;113.548;2022-11-20T12:34:43;35.80;;;9.05;;
72404;SDS011;60395;52.020;113.548;2022-11-20T12:38:19;18.02;;;6.55;;
72404;SDS011;60395;52.020;113.548;2022-11-20T12:48:41;45.67;;;14.90;;
72404;SDS011;60395;52.020;113.548;2022-11-20T12:52:00;44.47;;;15.73;;
72404;SDS011;60395;52.020;113.548;2022-11-20T12:55:20;36.97;;;13.07;;
72404;SDS011;60395;52.020;113.548;2022-11-20T12:58:43;27.30;;;7.60;;
72404;SDS011;60395;52.020;113.548;2022-11-20T13:09:13;33.38;;;10.02;;
72404;SDS011;60395;52.020;113.548;2022-11-20T13:15:42;39.22;;;13.65;;
72404;SDS011;60395;52.020;113.548;2022-11-20T13:21:56;18.30;;;7.80;;
72404;SDS011;60395;52.020;113.548;2022-11-20T13:24:59;28.83;;;10.70;;
72404;SDS011;60395;52.020;113.548;2022-11-20T13:28:26;26.13;;;8.48;;
72404;SDS011;60395;52.020;113.548;2022-11-20T13:31:32;23.98;;;9.20;;
72404;SDS011;60395;52.020;113.548;2022-11-20T13:34:37;22.45;;;7.97;;
72404;SDS011;60395;52.020;113.548;2022-11-20T13:37:40;31.53;;;11.83;;
72404;SDS011;60395;52.020;113.548;2022-11-20T13:43:59;37.35;;;12.85;;
72404;SDS011;60395;52.020;113.548;2022-11-20T13:57:16;32.35;;;8.27;;
72404;SDS011;60395;52.020;113.548;2022-11-20T14:00:27;30.27;;;11.60;;
72404;SDS011;60395;52.020;113.548;2022-11-20T14:03:30;49.00;;;16.25;;
72404;SDS011;60395;52.020;113.548;2022-11-20T14:06:56;63.85;;;20.70;;
72404;SDS011;60395;52.020;113.548;2022-11-20T14:10:00;58.83;;;16.05;;
72404;SDS011;60395;52.020;113.548;2022-11-20T14:13:10;88.50;;;27.10;;
72404;SDS011;60395;52.020;113.548;2022-11-20T14:16:20;82.05;;;25.50;;
72404;SDS011;60395;52.020;113.548;2022-11-20T14:22:32;45.70;;;15.23;;
72404;SDS011;60395;52.020;113.548;2022-11-20T14:25:36;46.53;;;20.10;;
72404;SDS011;60395;52.020;113.548;2022-11-20T14:28:39;60.05;;;22.02;;
72404;SDS011;60395;52.020;113.548;2022-11-20T14:31:43;60.92;;;24.52;;
72404;SDS011;60395;52.020;113.548;2022-11-20T14:34:54;42.95;;;17.67;;
72404;SDS011;60395;52.020;113.548;2022-11-20T14:38:00;46.05;;;15.88;;
72404;SDS011;60395;52.020;113.548;2022-11-20T14:41:08;32.20;;;14.88;;
72404;SDS011;60395;52.020;113.548;2022-11-20T14:44:23;38.10;;;16.35;;
72404;SDS011;60395;52.020;113.548;2022-11-20T14:47:30;73.07;;;22.15;;
72404;SDS011;60395;52.020;113.548;2022-11-20T14:50:34;48.67;;;17.58;;
72404;SDS011;60395;52.020;113.548;2022-11-20T14:53:37;77.88;;;19.40;;
72404;SDS011;60395;52.020;113.548;2022-11-20T14:56:40;55.53;;;20.80;;
72404;SDS011;60395;52.020;113.548;2022-11-20T14:59:43;61.88;;;20.73;;
72404;SDS011;60395;52.020;113.548;2022-11-20T15:02:48;53.95;;;18.27;;
72404;SDS011;60395;52.020;113.548;2022-11-20T15:05:53;71.15;;;24.58;;
72404;SDS011;60395;52.020;113.548;2022-11-20T15:08:56;61.33;;;20.88;;
72404;SDS011;60395;52.020;113.548;2022-11-20T15:12:00;96.85;;;29.88;;
72404;SDS011;60395;52.020;113.548;2022-11-20T15:15:04;105.57;;;28.98;;
72404;SDS011;60395;52.020;113.548;2022-11-20T15:18:18;77.10;;;26.50;;
72404;SDS011;60395;52.020;113.548;2022-11-20T15:21:24;72.47;;;27.17;;
72404;SDS011;60395;52.020;113.548;2022-11-20T15:24:27;73.47;;;23.73;;
72404;SDS011;60395;52.020;113.548;2022-11-20T15:27:32;65.38;;;22.67;;
72404;SDS011;60395;52.020;113.548;2022-11-20T15:30:35;74.25;;;22.70;;
72404;SDS011;60395;52.020;113.548;2022-11-20T15:33:39;92.27;;;27.63;;
72404;SDS011;60395;52.020;113.548;2022-11-20T15:36:42;68.05;;;25.02;;
72404;SDS011;60395;52.020;113.548;2022-11-20T15:39:46;80.78;;;21.33;;
72404;SDS011;60395;52.020;113.548;2022-11-20T15:42:50;72.53;;;25.85;;
72404;SDS011;60395;52.020;113.548;2022-11-20T15:46:16;96.70;;;27.77;;
72404;SDS011;60395;52.020;113.548;2022-11-20T15:49:28;65.50;;;22.75;;
72404;SDS011;60395;52.020;113.548;2022-11-20T15:52:32;45.38;;;18.75;;
72404;SDS011;60395;52.020;113.548;2022-11-20T15:55:43;60.90;;;22.35;;
72404;SDS011;60395;52.020;113.548;2022-11-20T15:58:46;42.20;;;15.80;;
72404;SDS011;60395;52.020;113.548;2022-11-20T16:01:49;24.10;;;13.52;;
72404;SDS011;60395;52.020;113.548;2022-11-20T16:04:52;30.67;;;10.85;;
72404;SDS011;60395;52.020;113.548;2022-11-20T16:07:57;35.67;;;11.95;;
72404;SDS011;60395;52.020;113.548;2022-11-20T16:11:00;21.20;;;9.90;;
72404;SDS011;60395;52.020;113.548;2022-11-20T16:14:04;26.90;;;9.48;;
72404;SDS011;60395;52.020;113.548;2022-11-20T16:17:26;34.00;;;12.50;;
72404;SDS011;60395;52.020;113.548;2022-11-20T16:20:45;35.72;;;10.63;;
72404;SDS011;60395;52.020;113.548;2022-11-20T16:23:49;18.33;;;9.95;;
72404;SDS011;60395;52.020;113.548;2022-11-20T16:26:53;33.63;;;14.68;;
72404;SDS011;60395;52.020;113.548;2022-11-20T16:29:56;32.75;;;12.88;;
72404;SDS011;60395;52.020;113.548;2022-11-20T16:32:59;28.85;;;10.00;;
72404;SDS011;60395;52.020;113.548;2022-11-20T16:36:12;37.65;;;15.23;;
72404;SDS011;60395;52.020;113.548;2022-11-20T16:39:17;42.05;;;13.60;;
72404;SDS011;60395;52.020;113.548;2022-11-20T16:42:24;31.13;;;10.43;;
72404;SDS011;60395;52.020;113.548;2022-11-20T16:45:27;35.67;;;10.18;;
72404;SDS011;60395;52.020;113.548;2022-11-20T16:48:34;11.02;;;5.95;;
72404;SDS011;60395;52.020;113.548;2022-11-20T16:51:37;13.75;;;6.28;;
72404;SDS011;60395;52.020;113.548;2022-11-20T16:54:40;21.60;;;7.47;;
72404;SDS011;60395;52.020;113.548;2022-11-20T16:57:43;22.67;;;9.25;;
72404;SDS011;60395;52.020;113.548;2022-11-20T17:00:46;8.07;;;4.13;;
72404;SDS011;60395;52.020;113.548;2022-11-20T17:04:01;22.60;;;8.82;;
72404;SDS011;60395;52.020;113.548;2022-11-20T17:07:06;16.55;;;8.63;;
72404;SDS011;60395;52.020;113.548;2022-11-20T17:10:09;28.83;;;9.48;;
72404;SDS011;60395;52.020;113.548;2022-11-20T17:13:12;19.67;;;9.02;;
72404;SDS011;60395;52.020;113.548;2022-11-20T17:16:17;25.00;;;9.68;;
72404;SDS011;60395;52.020;113.548;2022-11-20T17:19:22;38.97;;;13.45;;
72404;SDS011;60395;52.020;113.548;2022-11-20T17:22:25;28.73;;;11.93;;
72404;SDS011;60395;52.020;113.548;2022-11-20T17:25:30;20.08;;;8.77;;
72404;SDS011;60395;52.020;113.548;2022-11-20T17:28:35;6.97;;;5.03;;
72404;SDS011;60395;52.020;113.548;2022-11-20T17:31:39;29.40;;;8.80;;
72404;SDS011;60395;52.020;113.548;2022-11-20T17:34:43;20.00;;;8.23;;
72404;SDS011;60395;52.020;113.548;2022-11-20T17:37:46;42.55;;;11.32;;
72404;SDS011;60395;52.020;113.548;2022-11-20T17:40:52;39.63;;;12.55;;
72404;SDS011;60395;52.020;113.548;2022-11-20T17:43:56;18.75;;;8.98;;
72404;SDS011;60395;52.020;113.548;2022-11-20T17:47:01;19.00;;;9.63;;
72404;SDS011;60395;52.020;113.548;2022-11-20T17:50:04;30.83;;;8.43;;
72404;SDS011;60395;52.020;113.548;2022-11-20T17:53:08;19.33;;;7.32;;
72404;SDS011;60395;52.020;113.548;2022-11-20T17:56:11;18.23;;;8.23;;
72404;SDS011;60395;52.020;113.548;2022-11-20T17:59:33;23.35;;;9.77;;
72404;SDS011;60395;52.020;113.548;2022-11-20T18:02:36;19.50;;;8.32;;
72404;SDS011;60395;52.020;113.548;2022-11-20T18:05:39;24.90;;;8.97;;
72404;SDS011;60395;52.020;113.548;2022-11-20T18:08:42;31.80;;;11.05;;
72404;SDS011;60395;52.020;113.548;2022-11-20T18:11:45;23.10;;;9.73;;
72404;SDS011;60395;52.020;113.548;2022-11-20T18:14:48;46.70;;;14.07;;
72404;SDS011;60395;52.020;113.548;2022-11-20T18:17:51;38.70;;;10.70;;
72404;SDS011;60395;52.020;113.548;2022-11-20T18:20:55;16.25;;;9.07;;
72404;SDS011;60395;52.020;113.548;2022-11-20T18:23:58;39.93;;;13.60;;
72404;SDS011;60395;52.020;113.548;2022-11-20T18:27:02;38.00;;;11.67;;
72404;SDS011;60395;52.020;113.548;2022-11-20T18:30:07;34.97;;;11.63;;
72404;SDS011;60395;52.020;113.548;2022-11-20T18:33:11;29.90;;;12.53;;
72404;SDS011;60395;52.020;113.548;2022-11-20T18:36:16;32.77;;;13.37;;
72404;SDS011;60395;52.020;113.548;2022-11-20T18:39:21;25.23;;;14.33;;
72404;SDS011;60395;52.020;113.548;2022-11-20T18:42:24;36.15;;;14.57;;
72404;SDS011;60395;52.020;113.548;2022-11-20T18:45:46;54.87;;;13.53;;
72404;SDS011;60395;52.020;113.548;2022-11-20T18:48:50;22.88;;;10.65;;
72404;SDS011;60395;52.020;113.548;2022-11-20T18:51:53;26.37;;;10.23;;
72404;SDS011;60395;52.020;113.548;2022-11-20T18:54:56;17.13;;;7.70;;
72404;SDS011;60395;52.020;113.548;2022-11-20T18:58:00;28.80;;;12.90;;
72404;SDS011;60395;52.020;113.548;2022-11-20T19:01:04;31.17;;;12.73;;
72404;SDS011;60395;52.020;113.548;2022-11-20T19:04:08;25.17;;;9.80;;
72404;SDS011;60395;52.020;113.548;2022-11-20T19:07:13;28.57;;;9.80;;
72404;SDS011;60395;52.020;113.548;2022-11-20T19:13:21;29.50;;;13.23;;
72404;SDS011;60395;52.020;113.548;2022-11-20T19:16:24;48.37;;;19.17;;
72404;SDS011;60395;52.020;113.548;2022-11-20T19:19:27;32.17;;;14.37;;
72404;SDS011;60395;52.020;113.548;2022-11-20T19:22:30;23.05;;;12.52;;
72404;SDS011;60395;52.020;113.548;2022-11-20T19:25:33;45.40;;;15.70;;
72404;SDS011;60395;52.020;113.548;2022-11-20T19:28:39;41.90;;;16.43;;
72404;SDS011;60395;52.020;113.548;2022-11-20T19:31:42;40.37;;;15.80;;
72404;SDS011;60395;52.020;113.548;2022-11-20T19:34:45;27.90;;;12.50;;
72404;SDS011;60395;52.020;113.548;2022-11-20T19:37:48;47.35;;;17.80;;
72404;SDS011;60395;52.020;113.548;2022-11-20T19:40:54;29.17;;;10.87;;
72404;SDS011;60395;52.020;113.548;2022-11-20T19:43:57;51.57;;;17.43;;
72404;SDS011;60395;52.020;113.548;2022-11-20T19:47:05;30.13;;;14.70;;
72404;SDS011;60395;52.020;113.548;2022-11-20T19:50:14;36.70;;;15.03;;